Time;durP1;ratioP1;P1;durP2;ratioP2;P2;SDS_P1;SDS_P2;PMS_P1;PMS_P2;Temp;Humidity;BMP_temperature;BMP_pressure;BME280_temperature;BME280_humidity;BME280_pressure;Samples;Min_cycle;Max_cycle;Signal;HPM_P1;HPM_P2
2024/01/19 00:00:36;;;;;;;14.50;10.20;;;;;;;;;;5074722;28;20229;-80
2024/01/19 00:03:04;;;;;;;12.20;9.68;;;;;;;;;;5077784;28;20694;-79
2024/01/19 00:05:31;;;;;;;11.48;8.18;;;;;;;;;;5078939;28;20220;-80
2024/01/19 00:07:59;;;;;;;10.20;9.20;;;;;;;;;;5078923;28;20204;-81
2024/01/19 00:10:30;;;;;;;12.07;7.85;;;;;;;;;;5077668;28;20220;-79
2024/01/19 00:12:58;;;;;;;9.07;7.90;;;;;;;;;;5078051;28;20186;-80
2024/01/19 00:15:25;;;;;;;12.38;9.88;;;;;;;;;;5078500;28;20240;-80
2024/01/19 00:17:53;;;;;;;10.82;8.52;;;;;;;;;;5078214;28;20207;-79
2024/01/19 00:20:20;;;;;;;11.98;9.82;;;;;;;;;;5077763;28;20272;-80
2024/01/19 00:22:49;;;;;;;10.60;9.48;;;;;;;;;;5079029;28;20205;-80
2024/01/19 00:25:17;;;;;;;11.65;9.18;;;;;;;;;;5078734;28;20244;-81
2024/01/19 00:27:46;;;;;;;12.00;10.13;;;;;;;;;;5077843;28;20201;-80
2024/01/19 00:30:14;;;;;;;12.57;9.55;;;;;;;;;;5077956;28;20691;-80
2024/01/19 00:32:41;;;;;;;10.88;7.68;;;;;;;;;;5077786;28;20208;-80
2024/01/19 00:35:09;;;;;;;6.65;5.50;;;;;;;;;;5077341;28;20225;-80
2024/01/19 00:37:36;;;;;;;5.65;4.47;;;;;;;;;;5078080;28;20216;-80
2024/01/19 00:40:11;;;;;;;4.97;4.47;;;;;;;;;;5077530;28;20196;-80
2024/01/19 00:42:39;;;;;;;6.15;5.22;;;;;;;;;;5077914;28;20185;-81
2024/01/19 00:45:10;;;;;;;7.22;6.47;;;;;;;;;;5077854;28;20717;-78
2024/01/19 00:47:37;;;;;;;11.18;7.75;;;;;;;;;;5078233;28;20189;-81
2024/01/19 00:50:07;;;;;;;10.95;9.25;;;;;;;;;;5077854;28;20320;-79
2024/01/19 00:52:34;;;;;;;10.93;9.70;;;;;;;;;;5077597;28;20207;-80
2024/01/19 00:55:01;;;;;;;14.35;12.27;;;;;;;;;;5077486;28;20590;-80
2024/01/19 00:57:29;;;;;;;13.27;8.88;;;;;;;;;;5077287;28;20232;-80
2024/01/19 00:59:56;;;;;;;10.25;8.63;;;;;;;;;;5076839;28;20193;-80
2024/01/19 01:02:27;;;;;;;8.15;7.07;;;;;;;;;;5076892;28;20211;-80
2024/01/19 01:04:54;;;;;;;6.47;5.85;;;;;;;;;;5077411;28;20633;-80
2024/01/19 01:07:22;;;;;;;5.93;5.32;;;;;;;;;;5077003;28;20686;-81
2024/01/19 01:09:50;;;;;;;11.07;8.02;;;;;;;;;;5077008;28;20221;-79
2024/01/19 01:12:17;;;;;;;13.15;11.18;;;;;;;;;;5076600;28;20200;-80
2024/01/19 01:14:46;;;;;;;23.30;11.90;;;;;;;;;;5077217;28;20240;-78
2024/01/19 01:17:14;;;;;;;12.00;9.80;;;;;;;;;;5076547;28;20201;-79
2024/01/19 01:19:43;;;;;;;10.63;8.88;;;;;;;;;;5076515;28;20205;-80
2024/01/19 01:22:13;;;;;;;10.95;9.75;;;;;;;;;;5076880;28;20208;-80
2024/01/19 01:24:40;;;;;;;16.80;13.82;;;;;;;;;;5076714;28;20232;-80
2024/01/19 01:27:07;;;;;;;19.27;13.75;;;;;;;;;;5077167;28;20711;-80
2024/01/19 01:29:35;;;;;;;22.17;14.82;;;;;;;;;;5075987;28;20196;-80
2024/01/19 01:32:02;;;;;;;21.50;15.75;;;;;;;;;;5075880;28;20288;-80
2024/01/19 01:34:30;;;;;;;19.67;14.75;;;;;;;;;;5076475;28;20220;-80
2024/01/19 01:36:59;;;;;;;19.33;14.80;;;;;;;;;;5076383;28;20202;-80
2024/01/19 01:39:27;;;;;;;14.98;10.45;;;;;;;;;;5076595;28;20211;-81
2024/01/19 01:41:54;;;;;;;14.25;12.65;;;;;;;;;;5077170;28;20660;-80
2024/01/19 01:44:22;;;;;;;12.88;10.43;;;;;;;;;;5076857;28;20256;-79
2024/01/19 01:46:49;;;;;;;17.63;12.30;;;;;;;;;;5076411;28;20226;-80
2024/01/19 01:49:17;;;;;;;9.23;8.30;;;;;;;;;;5076404;28;20201;-79
2024/01/19 01:51:44;;;;;;;8.02;6.75;;;;;;;;;;5076222;28;20227;-80
2024/01/19 01:54:14;;;;;;;9.57;6.90;;;;;;;;;;5076884;28;20690;-80
2024/01/19 01:56:42;;;;;;;7.45;6.72;;;;;;;;;;5076577;28;20296;-80
2024/01/19 01:59:09;;;;;;;15.07;12.18;;;;;;;;;;5076450;28;20197;-80
2024/01/19 02:01:37;;;;;;;13.98;11.10;;;;;;;;;;5076717;28;20639;-80
2024/01/19 02:04:08;;;;;;;9.95;8.27;;;;;;;;;;5075893;28;20296;-80
2024/01/19 02:06:35;;;;;;;14.50;9.75;;;;;;;;;;5076189;28;20189;-80
2024/01/19 02:09:03;;;;;;;13.43;10.73;;;;;;;;;;5075702;28;20715;-80
2024/01/19 02:11:32;;;;;;;13.10;9.30;;;;;;;;;;5075924;28;20228;-79
2024/01/19 02:13:59;;;;;;;13.75;11.70;;;;;;;;;;5076107;28;20205;-80
2024/01/19 02:16:27;;;;;;;9.50;8.18;;;;;;;;;;5075356;28;20232;-79
2024/01/19 02:18:55;;;;;;;12.32;10.40;;;;;;;;;;5075964;28;20209;-81
2024/01/19 02:21:23;;;;;;;13.13;11.00;;;;;;;;;;5076055;28;20656;-80
2024/01/19 02:24:00;;;;;;;12.77;11.27;;;;;;;;;;5075473;28;20201;-81
2024/01/19 02:26:29;;;;;;;13.18;9.77;;;;;;;;;;5076448;28;20556;-80
2024/01/19 02:28:57;;;;;;;14.15;10.02;;;;;;;;;;5076444;28;20233;-80
2024/01/19 02:31:24;;;;;;;7.75;7.00;;;;;;;;;;5075728;28;20221;-80
2024/01/19 02:33:51;;;;;;;8.85;7.45;;;;;;;;;;5075470;28;20288;-81
2024/01/19 02:36:19;;;;;;;6.07;5.25;;;;;;;;;;5075425;28;20565;-78
2024/01/19 02:38:46;;;;;;;6.72;6.05;;;;;;;;;;5075703;28;20209;-80
2024/01/19 02:41:14;;;;;;;8.60;6.80;;;;;;;;;;5075545;28;20205;-80
2024/01/19 02:43:43;;;;;;;10.68;8.75;;;;;;;;;;5075279;28;20295;-81
2024/01/19 02:46:14;;;;;;;10.23;8.90;;;;;;;;;;5075354;28;20228;-81
2024/01/19 02:48:42;;;;;;;10.10;8.18;;;;;;;;;;5075975;28;20190;-80
2024/01/19 02:51:09;;;;;;;7.50;6.72;;;;;;;;;;5075504;28;20229;-80
2024/01/19 02:53:37;;;;;;;11.45;8.07;;;;;;;;;;5075686;28;20203;-81
2024/01/19 02:56:04;;;;;;;13.02;10.40;;;;;;;;;;5075663;28;20221;-79
2024/01/19 02:58:32;;;;;;;9.38;8.40;;;;;;;;;;5075527;28;20687;-78
2024/01/19 03:01:01;;;;;;;8.20;7.22;;;;;;;;;;5075735;28;20306;-80
2024/01/19 03:03:28;;;;;;;14.27;9.40;;;;;;;;;;5075478;28;20201;-81
2024/01/19 03:05:55;;;;;;;9.00;7.95;;;;;;;;;;5074876;28;20217;-80
2024/01/19 03:08:23;;;;;;;12.45;8.48;;;;;;;;;;5075243;28;20892;-79
2024/01/19 03:10:51;;;;;;;8.32;7.30;;;;;;;;;;5075181;28;20225;-80
2024/01/19 03:13:18;;;;;;;8.57;6.57;;;;;;;;;;5074855;28;20196;-80
2024/01/19 03:15:46;;;;;;;9.63;7.30;;;;;;;;;;5074428;28;20270;-79
2024/01/19 03:18:15;;;;;;;9.85;7.82;;;;;;;;;;5074337;28;20667;-80
2024/01/19 03:20:42;;;;;;;9.55;7.70;;;;;;;;;;5074450;28;20209;-79
2024/01/19 03:23:10;;;;;;;9.43;7.07;;;;;;;;;;5074736;28;20629;-81
2024/01/19 03:25:37;;;;;;;8.20;7.38;;;;;;;;;;5074651;28;20305;-80
2024/01/19 03:28:05;;;;;;;9.40;8.40;;;;;;;;;;5074965;28;20205;-80
2024/01/19 03:30:34;;;;;;;9.35;8.07;;;;;;;;;;5074382;28;20247;-80
2024/01/19 03:33:01;;;;;;;9.52;7.45;;;;;;;;;;5074883;28;20208;-79
2024/01/19 03:35:30;;;;;;;10.07;8.23;;;;;;;;;;5074553;28;20231;-80
2024/01/19 03:37:58;;;;;;;17.20;12.48;;;;;;;;;;5073934;28;20205;-79
2024/01/19 03:40:25;;;;;;;13.10;9.68;;;;;;;;;;5074853;28;20311;-81
2024/01/19 03:42:52;;;;;;;19.58;13.85;;;;;;;;;;5074538;28;20657;-80
2024/01/19 03:45:20;;;;;;;15.02;9.48;;;;;;;;;;5073955;28;20227;-79
2024/01/19 03:47:48;;;;;;;14.75;11.10;;;;;;;;;;5074861;28;20201;-81
2024/01/19 03:50:15;;;;;;;8.57;6.40;;;;;;;;;;5074540;28;20264;-80
2024/01/19 03:52:45;;;;;;;7.53;5.90;;;;;;;;;;5075098;28;20267;-81
2024/01/19 03:55:12;;;;;;;3.95;3.20;;;;;;;;;;5074709;28;20225;-79
2024/01/19 03:57:40;;;;;;;8.40;6.05;;;;;;;;;;5074391;28;20207;-79
2024/01/19 04:00:09;;;;;;;12.52;8.32;;;;;;;;;;5074629;28;20201;-81
2024/01/19 04:02:36;;;;;;;10.48;8.45;;;;;;;;;;5074805;28;20192;-81
2024/01/19 04:05:04;;;;;;;13.48;10.77;;;;;;;;;;5074450;28;20235;-80
2024/01/19 04:07:32;;;;;;;18.48;11.93;;;;;;;;;;5074341;28;20600;-79
2024/01/19 04:10:01;;;;;;;14.68;10.82;;;;;;;;;;5074290;28;20285;-80
2024/01/19 04:12:28;;;;;;;12.80;9.95;;;;;;;;;;5074306;28;20229;-80
2024/01/19 04:14:56;;;;;;;12.13;9.77;;;;;;;;;;5074413;28;20216;-80
2024/01/19 04:17:23;;;;;;;15.00;12.10;;;;;;;;;;5074156;28;20255;-80
2024/01/19 04:19:51;;;;;;;11.27;9.05;;;;;;;;;;5073911;28;20213;-79
2024/01/19 04:22:18;;;;;;;14.70;11.60;;;;;;;;;;5074392;28;20205;-81
2024/01/19 04:24:45;;;;;;;8.65;6.72;;;;;;;;;;5073895;28;20216;-80
2024/01/19 04:27:14;;;;;;;7.95;5.13;;;;;;;;;;5074090;28;20572;-80
2024/01/19 04:29:42;;;;;;;4.22;3.33;;;;;;;;;;5074240;28;20719;-80
2024/01/19 04:32:12;;;;;;;3.92;2.50;;;;;;;;;;5074270;28;20221;-80
2024/01/19 04:34:39;;;;;;;2.00;1.80;;;;;;;;;;5075536;28;20803;-80
2024/01/19 04:37:07;;;;;;;3.60;2.47;;;;;;;;;;5075588;28;20205;-80
2024/01/19 04:39:34;;;;;;;1.98;1.67;;;;;;;;;;5075389;28;20269;-81
2024/01/19 04:42:02;;;;;;;2.58;2.38;;;;;;;;;;5075504;28;20197;-80
2024/01/19 04:44:31;;;;;;;2.55;2.35;;;;;;;;;;5075347;28;20235;-80
2024/01/19 04:46:58;;;;;;;2.85;2.55;;;;;;;;;;5075067;28;20201;-81
2024/01/19 04:49:26;;;;;;;6.78;5.55;;;;;;;;;;5079116;28;20268;-80
2024/01/19 04:51:53;;;;;;;11.43;9.75;;;;;;;;;;5079120;28;20224;-80
2024/01/19 04:54:20;;;;;;;12.15;9.25;;;;;;;;;;5078739;28;20288;-81
2024/01/19 04:56:48;;;;;;;7.57;6.65;;;;;;;;;;5078791;28;20201;-80
2024/01/19 04:59:15;;;;;;;9.43;7.75;;;;;;;;;;5077997;28;20213;-81
2024/01/19 05:01:44;;;;;;;9.43;7.57;;;;;;;;;;5078772;28;20224;-79
2024/01/19 05:04:11;;;;;;;10.25;7.63;;;;;;;;;;5078577;28;20280;-81
2024/01/19 05:06:39;;;;;;;8.70;7.25;;;;;;;;;;5077971;28;20581;-80
2024/01/19 05:09:06;;;;;;;12.32;9.45;;;;;;;;;;5078413;28;20300;-81
2024/01/19 05:11:34;;;;;;;9.57;7.87;;;;;;;;;;5078255;28;20668;-80
2024/01/19 05:14:03;;;;;;;12.30;8.95;;;;;;;;;;5078117;28;20200;-81
2024/01/19 05:16:30;;;;;;;15.88;11.15;;;;;;;;;;5078406;28;20208;-80
2024/01/19 05:18:59;;;;;;;13.93;9.52;;;;;;;;;;5078052;28;20300;-80
2024/01/19 05:21:26;;;;;;;15.50;10.48;;;;;;;;;;5078681;28;20223;-80
2024/01/19 05:23:54;;;;;;;13.35;8.98;;;;;;;;;;5078149;28;20572;-80
2024/01/19 05:26:21;;;;;;;8.38;6.65;;;;;;;;;;5078504;28;20221;-81
2024/01/19 05:28:49;;;;;;;10.13;7.55;;;;;;;;;;5077895;28;20296;-80
2024/01/19 05:31:17;;;;;;;9.60;7.57;;;;;;;;;;5077908;28;20686;-78
2024/01/19 05:33:44;;;;;;;12.38;9.10;;;;;;;;;;5077216;28;20225;-80
2024/01/19 05:36:13;;;;;;;11.73;8.90;;;;;;;;;;5078112;28;20318;-80
2024/01/19 05:38:40;;;;;;;9.35;8.23;;;;;;;;;;5077839;28;20655;-80
2024/01/19 05:41:08;;;;;;;10.23;8.10;;;;;;;;;;5078017;28;20264;-81
2024/01/19 05:43:35;;;;;;;18.75;13.23;;;;;;;;;;5077946;28;20259;-80
2024/01/19 05:46:03;;;;;;;17.85;11.63;;;;;;;;;;5077189;28;20225;-81
2024/01/19 05:48:30;;;;;;;22.63;13.02;;;;;;;;;;5077230;28;20243;-80
2024/01/19 05:50:57;;;;;;;13.02;10.57;;;;;;;;;;5077557;28;20671;-80
2024/01/19 05:53:26;;;;;;;14.93;11.57;;;;;;;;;;5077684;28;20220;-81
2024/01/19 05:55:54;;;;;;;12.57;10.63;;;;;;;;;;5077361;28;20231;-81
2024/01/19 05:58:21;;;;;;;19.30;13.38;;;;;;;;;;5077307;28;20209;-80
2024/01/19 06:00:49;;;;;;;18.33;13.10;;;;;;;;;;5076361;28;20229;-81
2024/01/19 06:03:16;;;;;;;16.92;11.48;;;;;;;;;;5077698;28;20671;-81
2024/01/19 06:05:44;;;;;;;18.65;13.40;;;;;;;;;;5077770;28;20217;-80
2024/01/19 06:08:11;;;;;;;15.57;11.65;;;;;;;;;;5077250;28;20291;-81
2024/01/19 06:10:40;;;;;;;11.52;10.10;;;;;;;;;;5077730;28;20544;-79
2024/01/19 06:13:08;;;;;;;12.73;9.93;;;;;;;;;;5077245;28;20301;-79
2024/01/19 06:15:36;;;;;;;19.27;13.95;;;;;;;;;;5077204;28;20240;-79
2024/01/19 06:18:04;;;;;;;15.48;10.00;;;;;;;;;;5077354;28;20663;-80
2024/01/19 06:20:32;;;;;;;13.60;10.02;;;;;;;;;;5076960;28;20217;-80
2024/01/19 06:22:59;;;;;;;10.68;9.38;;;;;;;;;;5077763;28;20223;-80
2024/01/19 06:25:27;;;;;;;12.18;9.50;;;;;;;;;;5077118;28;20288;-79
2024/01/19 06:27:58;;;;;;;11.05;8.65;;;;;;;;;;5077706;28;20275;-79
2024/01/19 06:30:25;;;;;;;18.90;12.15;;;;;;;;;;5077416;28;20215;-80
2024/01/19 06:32:52;;;;;;;10.43;7.88;;;;;;;;;;5077010;28;20712;-78
2024/01/19 06:35:20;;;;;;;14.25;10.70;;;;;;;;;;5077053;28;20304;-80
2024/01/19 06:37:47;;;;;;;11.00;9.15;;;;;;;;;;5076221;28;20203;-80
2024/01/19 06:40:15;;;;;;;11.60;8.60;;;;;;;;;;5077109;28;20205;-79
2024/01/19 06:42:44;;;;;;;19.45;13.57;;;;;;;;;;5076516;28;20230;-77
2024/01/19 06:45:15;;;;;;;20.48;13.43;;;;;;;;;;5076150;28;20265;-80
2024/01/19 06:47:42;;;;;;;19.67;13.25;;;;;;;;;;5077138;28;20188;-77
2024/01/19 06:50:11;;;;;;;14.20;10.55;;;;;;;;;;5077170;28;20235;-81
2024/01/19 06:52:39;;;;;;;14.05;8.95;;;;;;;;;;5076321;28;20690;-78
2024/01/19 06:55:08;;;;;;;10.75;8.73;;;;;;;;;;5076717;28;20217;-80
2024/01/19 06:57:35;;;;;;;14.75;9.43;;;;;;;;;;5076761;28;20209;-80
2024/01/19 07:00:03;;;;;;;20.90;14.30;;;;;;;;;;5076588;28;20201;-78
2024/01/19 07:02:32;;;;;;;15.15;11.30;;;;;;;;;;5075893;28;20240;-79
2024/01/19 07:05:00;;;;;;;21.48;15.57;;;;;;;;;;5076381;28;20590;-79
2024/01/19 07:07:27;;;;;;;18.98;13.77;;;;;;;;;;5075438;28;20207;-81
2024/01/19 07:09:55;;;;;;;14.32;11.02;;;;;;;;;;5090243;28;20311;-78
2024/01/19 07:12:22;;;;;;;20.55;14.32;;;;;;;;;;5096227;28;20224;-79
2024/01/19 07:14:49;;;;;;;15.95;11.55;;;;;;;;;;5096304;28;20709;-79
2024/01/19 07:17:17;;;;;;;17.92;13.30;;;;;;;;;;5095537;28;20196;-78
2024/01/19 07:19:46;;;;;;;19.02;12.48;;;;;;;;;;5082620;28;20688;-79
2024/01/19 07:22:13;;;;;;;18.15;12.93;;;;;;;;;;5075614;28;20205;-79
2024/01/19 07:24:40;;;;;;;20.17;13.32;;;;;;;;;;5084285;28;20414;-79
2024/01/19 07:27:08;;;;;;;13.95;10.23;;;;;;;;;;5075350;28;20201;-79
2024/01/19 07:29:35;;;;;;;21.27;14.15;;;;;;;;;;5082870;28;20277;-79
2024/01/19 07:32:03;;;;;;;12.27;8.70;;;;;;;;;;5085030;28;20259;-78
2024/01/19 07:34:30;;;;;;;19.08;11.43;;;;;;;;;;5075829;28;20225;-80
2024/01/19 07:37:00;;;;;;;20.33;13.80;;;;;;;;;;5089481;28;20204;-79
2024/01/19 07:39:27;;;;;;;13.52;10.02;;;;;;;;;;5093076;28;20238;-79
2024/01/19 07:41:55;;;;;;;20.20;13.20;;;;;;;;;;5089555;28;20231;-80
2024/01/19 07:44:23;;;;;;;19.35;14.43;;;;;;;;;;5095356;28;20315;-80
2024/01/19 07:46:50;;;;;;;19.77;12.02;;;;;;;;;;5079262;28;20291;-79
2024/01/19 07:49:20;;;;;;;17.20;13.40;;;;;;;;;;5092354;28;20204;-78
2024/01/19 07:51:48;;;;;;;17.65;11.20;;;;;;;;;;5097712;28;20245;-79
2024/01/19 07:54:17;;;;;;;10.88;7.82;;;;;;;;;;5091061;28;20232;-77
2024/01/19 07:56:45;;;;;;;18.10;12.63;;;;;;;;;;5092823;28;20284;-78
2024/01/19 07:59:12;;;;;;;16.38;10.10;;;;;;;;;;5085837;28;20196;-77
2024/01/19 08:01:40;;;;;;;12.85;9.35;;;;;;;;;;5093000;28;20199;-77
2024/01/19 08:04:07;;;;;;;19.90;14.57;;;;;;;;;;5092931;28;20283;-78
2024/01/19 08:06:35;;;;;;;19.13;12.50;;;;;;;;;;5091077;28;20283;-78
2024/01/19 08:09:02;;;;;;;16.42;11.02;;;;;;;;;;5083284;28;20206;-78
2024/01/19 08:11:31;;;;;;;17.75;13.55;;;;;;;;;;5088555;28;20295;-78
2024/01/19 08:13:58;;;;;;;11.77;9.05;;;;;;;;;;5094188;28;20307;-78
2024/01/19 08:16:26;;;;;;;22.08;15.00;;;;;;;;;;5093802;28;20702;-78
2024/01/19 08:18:56;;;;;;;17.83;13.05;;;;;;;;;;5093596;28;20204;-78
2024/01/19 08:21:23;;;;;;;21.77;15.10;;;;;;;;;;5091543;28;20235;-78
2024/01/19 08:23:51;;;;;;;18.67;12.40;;;;;;;;;;5095853;28;20558;-78
2024/01/19 08:26:21;;;;;;;25.20;15.85;;;;;;;;;;5095882;28;20661;-78
2024/01/19 08:28:50;;;;;;;19.73;13.35;;;;;;;;;;5096246;28;20204;-78
2024/01/19 08:31:18;;;;;;;20.33;13.90;;;;;;;;;;5095121;28;20196;-78
2024/01/19 08:33:46;;;;;;;17.02;11.38;;;;;;;;;;5098184;28;20227;-78
2024/01/19 08:36:13;;;;;;;15.32;11.82;;;;;;;;;;5093543;28;20223;-78
2024/01/19 08:38:40;;;;;;;14.27;11.68;;;;;;;;;;5097084;28;20224;-78
2024/01/19 08:41:08;;;;;;;21.00;15.55;;;;;;;;;;5094309;28;20597;-78
2024/01/19 08:43:35;;;;;;;15.18;11.05;;;;;;;;;;5098312;28;20291;-78
2024/01/19 08:46:05;;;;;;;22.35;14.68;;;;;;;;;;5098268;28;20216;-78
2024/01/19 08:48:33;;;;;;;18.58;13.73;;;;;;;;;;5095814;28;20200;-77
2024/01/19 08:51:01;;;;;;;18.67;12.63;;;;;;;;;;5097531;28;20283;-79
2024/01/19 08:53:28;;;;;;;18.73;12.95;;;;;;;;;;5091241;28;20319;-78
2024/01/19 08:55:55;;;;;;;13.75;9.48;;;;;;;;;;5098061;28;20231;-78
2024/01/19 08:58:23;;;;;;;13.55;10.77;;;;;;;;;;5097060;28;20287;-78
2024/01/19 09:00:51;;;;;;;17.70;13.07;;;;;;;;;;5098236;28;20197;-78
2024/01/19 09:03:20;;;;;;;17.63;13.32;;;;;;;;;;5098144;28;20196;-78
2024/01/19 09:05:47;;;;;;;14.75;11.70;;;;;;;;;;5098652;28;20291;-78
2024/01/19 09:08:14;;;;;;;20.63;13.85;;;;;;;;;;5096213;28;20285;-78
2024/01/19 09:10:42;;;;;;;13.18;9.80;;;;;;;;;;5097736;28;20279;-78
2024/01/19 09:13:09;;;;;;;12.80;9.85;;;;;;;;;;5098388;28;20201;-79
2024/01/19 09:15:38;;;;;;;16.75;12.10;;;;;;;;;;5097385;28;20786;-78
2024/01/19 09:18:07;;;;;;;31.88;17.60;;;;;;;;;;5098065;28;20212;-78
2024/01/19 09:20:36;;;;;;;20.63;14.20;;;;;;;;;;5098657;28;20236;-78
2024/01/19 09:23:03;;;;;;;19.60;13.95;;;;;;;;;;5094405;28;20224;-78
2024/01/19 09:25:31;;;;;;;18.80;14.10;;;;;;;;;;5086478;28;20750;-80
2024/01/19 09:27:59;;;;;;;22.70;16.75;;;;;;;;;;5097872;28;20208;-79
2024/01/19 09:30:26;;;;;;;21.23;16.20;;;;;;;;;;5085931;28;20702;-78
2024/01/19 09:32:54;;;;;;;24.60;15.65;;;;;;;;;;5086987;28;20192;-80
2024/01/19 09:35:21;;;;;;;22.23;14.88;;;;;;;;;;5085481;28;20225;-78
2024/01/19 09:37:51;;;;;;;21.25;14.30;;;;;;;;;;5096109;28;20283;-78
2024/01/19 09:40:20;;;;;;;13.75;11.45;;;;;;;;;;5080099;28;20296;-80
2024/01/19 09:42:54;;;;;;;20.13;15.15;;;;;;;;;;5084962;28;20291;-80
2024/01/19 09:45:23;;;;;;;21.80;14.88;;;;;;;;;;5079413;28;20232;-79
2024/01/19 09:48:03;;;;;;;16.70;11.63;;;;;;;;;;5079665;28;20296;-79
2024/01/19 09:50:36;;;;;;;12.85;9.65;;;;;;;;;;5079928;28;20280;-80
2024/01/19 09:53:13;;;;;;;15.80;9.88;;;;;;;;;;5079986;28;20259;-80
2024/01/19 09:55:40;;;;;;;16.40;12.02;;;;;;;;;;5079249;28;20662;-79
2024/01/19 09:58:08;;;;;;;14.02;10.55;;;;;;;;;;5087749;28;20225;-80
2024/01/19 10:00:35;;;;;;;16.88;8.77;;;;;;;;;;5099023;28;20291;-79
2024/01/19 10:03:03;;;;;;;15.05;10.60;;;;;;;;;;5099592;28;20291;-80
2024/01/19 10:05:31;;;;;;;16.75;10.80;;;;;;;;;;5088313;28;20295;-80
2024/01/19 10:07:59;;;;;;;15.70;12.55;;;;;;;;;;5099230;28;20295;-80
2024/01/19 10:10:27;;;;;;;16.25;11.35;;;;;;;;;;5089436;28;20375;-79
2024/01/19 10:12:55;;;;;;;15.90;11.25;;;;;;;;;;5088370;28;20703;-80
2024/01/19 10:15:23;;;;;;;10.73;8.68;;;;;;;;;;5089089;28;20236;-81
2024/01/19 10:17:52;;;;;;;10.52;7.93;;;;;;;;;;5091179;28;20224;-81
2024/01/19 10:20:20;;;;;;;11.77;7.05;;;;;;;;;;5085406;28;20216;-80
2024/01/19 10:22:47;;;;;;;12.35;6.95;;;;;;;;;;5078869;28;20705;-81
2024/01/19 10:25:16;;;;;;;14.75;9.10;;;;;;;;;;5086024;28;20310;-78
2024/01/19 10:27:47;;;;;;;14.20;10.38;;;;;;;;;;5087474;28;20625;-80
2024/01/19 10:30:17;;;;;;;14.75;11.15;;;;;;;;;;5089217;28;20301;-80
2024/01/19 10:32:48;;;;;;;13.90;10.93;;;;;;;;;;5078149;28;20276;-80
2024/01/19 10:35:17;;;;;;;17.88;11.55;;;;;;;;;;5079198;28;20225;-79
2024/01/19 10:37:45;;;;;;;16.58;11.98;;;;;;;;;;5091415;28;20200;-78
2024/01/19 10:40:20;;;;;;;17.42;12.43;;;;;;;;;;5098736;28;20742;-78
2024/01/19 10:42:53;;;;;;;17.45;13.10;;;;;;;;;;5089698;28;20201;-80
2024/01/19 10:45:22;;;;;;;13.48;9.75;;;;;;;;;;5079736;28;20228;-79
2024/01/19 10:47:52;;;;;;;16.08;11.40;;;;;;;;;;5092309;28;20223;-80
2024/01/19 10:50:21;;;;;;;13.88;9.75;;;;;;;;;;5094445;28;20239;-79
2024/01/19 10:52:51;;;;;;;13.07;10.35;;;;;;;;;;5070736;28;20276;-81
2024/01/19 10:55:20;;;;;;;15.25;10.45;;;;;;;;;;5079650;28;20232;-81
2024/01/19 10:57:52;;;;;;;18.45;11.93;;;;;;;;;;5096098;28;20616;-81
2024/01/19 11:00:22;;;;;;;16.80;12.77;;;;;;;;;;5088408;28;20610;-82
2024/01/19 11:02:51;;;;;;;18.92;12.82;;;;;;;;;;5081986;28;20202;-84
2024/01/19 11:05:20;;;;;;;15.38;13.00;;;;;;;;;;5086935;28;20220;-79
2024/01/19 11:07:50;;;;;;;15.00;11.05;;;;;;;;;;5082070;28;20200;-80
2024/01/19 11:10:18;;;;;;;13.57;10.65;;;;;;;;;;5085090;28;20652;-82
2024/01/19 11:12:55;;;;;;;17.90;11.13;;;;;;;;;;5079639;28;20210;-83
2024/01/19 11:15:35;;;;;;;12.88;10.88;;;;;;;;;;5086257;28;20311;-82
2024/01/19 11:18:05;;;;;;;14.70;11.07;;;;;;;;;;5080504;28;20264;-82
2024/01/19 11:20:34;;;;;;;11.35;8.80;;;;;;;;;;5086384;28;20699;-80
2024/01/19 11:23:03;;;;;;;18.00;12.88;;;;;;;;;;5098862;28;20285;-79
2024/01/19 11:25:53;;;;;;;17.33;12.32;;;;;;;;;;5079676;28;20586;-78
2024/01/19 11:28:25;;;;;;;16.00;10.80;;;;;;;;;;5080166;28;20272;-82
2024/01/19 11:31:10;;;;;;;14.45;10.70;;;;;;;;;;5089735;28;20291;-82
2024/01/19 11:33:38;;;;;;;18.20;13.23;;;;;;;;;;5101082;28;20549;-78
2024/01/19 11:36:06;;;;;;;13.80;10.73;;;;;;;;;;5084931;28;20233;-77
2024/01/19 11:38:47;;;;;;;19.15;12.48;;;;;;;;;;5079155;28;20307;-78
2024/01/19 11:41:46;;;;;;;16.38;11.00;;;;;;;;;;5078311;28;20197;-77
2024/01/19 11:44:44;;;;;;;12.07;10.40;;;;;;;;;;5078697;28;20200;-81
2024/01/19 11:47:43;;;;;;;11.23;9.05;;;;;;;;;;5080407;28;20194;-80
2024/01/19 11:50:13;;;;;;;14.35;9.93;;;;;;;;;;5083743;28;20325;-81
2024/01/19 11:52:45;;;;;;;19.58;10.00;;;;;;;;;;5099530;28;20204;-78
2024/01/19 11:55:42;;;;;;;14.50;9.70;;;;;;;;;;5098504;28;20234;-81
2024/01/19 11:58:42;;;;;;;16.00;10.68;;;;;;;;;;5098859;28;20204;-79
2024/01/19 12:01:12;;;;;;;11.02;7.85;;;;;;;;;;5100329;28;20230;-81
2024/01/19 12:03:40;;;;;;;12.85;8.48;;;;;;;;;;5098725;28;20204;-81
2024/01/19 12:06:08;;;;;;;11.07;8.32;;;;;;;;;;5099699;28;20216;-80
2024/01/19 12:08:36;;;;;;;16.42;11.38;;;;;;;;;;5098935;28;20196;-81
2024/01/19 12:11:07;;;;;;;14.38;9.10;;;;;;;;;;5100681;28;20196;-81
2024/01/19 12:13:37;;;;;;;10.60;7.47;;;;;;;;;;5099696;28;20220;-82
2024/01/19 12:16:05;;;;;;;15.70;10.48;;;;;;;;;;5099956;28;20224;-81
2024/01/19 12:18:35;;;;;;;11.05;8.05;;;;;;;;;;5099785;28;20196;-82
2024/01/19 12:21:03;;;;;;;18.75;10.75;;;;;;;;;;5099718;28;20624;-81
2024/01/19 12:23:33;;;;;;;15.48;11.82;;;;;;;;;;5099916;28;20204;-80
2024/01/19 12:26:03;;;;;;;10.90;8.65;;;;;;;;;;5099656;28;20232;-81
2024/01/19 12:28:33;;;;;;;9.95;7.28;;;;;;;;;;5099508;28;20191;-81
2024/01/19 12:31:01;;;;;;;9.95;7.55;;;;;;;;;;5100451;28;20213;-81
2024/01/19 12:33:30;;;;;;;8.00;6.82;;;;;;;;;;5098883;28;20196;-81
2024/01/19 12:36:12;;;;;;;9.18;7.35;;;;;;;;;;5098559;28;20621;-81
2024/01/19 12:38:40;;;;;;;8.25;6.70;;;;;;;;;;5099756;28;20190;-81
2024/01/19 12:41:14;;;;;;;11.00;6.22;;;;;;;;;;5100328;28;20200;-79
2024/01/19 12:43:42;;;;;;;8.98;6.03;;;;;;;;;;5099315;28;20188;-79
2024/01/19 12:46:12;;;;;;;6.50;5.28;;;;;;;;;;5099911;28;20216;-78
2024/01/19 12:48:39;;;;;;;5.88;5.22;;;;;;;;;;5099998;28;20638;-81
2024/01/19 12:51:09;;;;;;;6.72;5.75;;;;;;;;;;5099766;28;20690;-79
2024/01/19 12:53:37;;;;;;;10.50;8.05;;;;;;;;;;5100197;28;20201;-81
2024/01/19 12:56:27;;;;;;;13.43;8.90;;;;;;;;;;5100156;28;20306;-81
2024/01/19 12:59:07;;;;;;;9.93;8.55;;;;;;;;;;5100027;28;20184;-80
2024/01/19 13:01:35;;;;;;;10.90;9.40;;;;;;;;;;5100148;28;20339;-80
2024/01/19 13:04:05;;;;;;;17.17;11.15;;;;;;;;;;5100542;28;20204;-82
2024/01/19 13:06:40;;;;;;;12.18;8.60;;;;;;;;;;5097089;28;20176;-82
2024/01/19 13:09:09;;;;;;;12.98;10.10;;;;;;;;;;5090693;28;20207;-82
2024/01/19 13:11:36;;;;;;;16.35;11.18;;;;;;;;;;5090645;28;20231;-81
2024/01/19 13:14:05;;;;;;;13.02;10.15;;;;;;;;;;5093466;28;20284;-81
2024/01/19 13:16:33;;;;;;;12.93;9.75;;;;;;;;;;5080166;28;20207;-80
2024/01/19 13:19:04;;;;;;;13.93;10.68;;;;;;;;;;5085510;28;20209;-81
2024/01/19 13:21:33;;;;;;;14.10;10.57;;;;;;;;;;5100208;28;20202;-82
2024/01/19 13:24:01;;;;;;;10.50;8.30;;;;;;;;;;5100345;28;20235;-81
2024/01/19 13:26:30;;;;;;;9.98;7.65;;;;;;;;;;5093354;28;20204;-81
2024/01/19 13:28:57;;;;;;;10.05;8.35;;;;;;;;;;5080147;28;20207;-81
2024/01/19 13:31:25;;;;;;;14.32;9.15;;;;;;;;;;5080303;28;20197;-80
2024/01/19 13:33:52;;;;;;;12.75;8.68;;;;;;;;;;5079574;28;20205;-81
2024/01/19 13:36:21;;;;;;;9.93;8.52;;;;;;;;;;5087600;28;20231;-81
2024/01/19 13:38:50;;;;;;;14.48;8.15;;;;;;;;;;5081803;28;20220;-81
2024/01/19 13:41:17;;;;;;;6.88;6.15;;;;;;;;;;5090815;28;20209;-81
2024/01/19 13:43:47;;;;;;;11.60;6.20;;;;;;;;;;5086010;28;20205;-81
2024/01/19 13:46:14;;;;;;;5.53;4.30;;;;;;;;;;5078236;28;20717;-81
2024/01/19 13:48:42;;;;;;;7.78;4.90;;;;;;;;;;5078462;28;20208;-81
2024/01/19 13:51:10;;;;;;;7.90;5.05;;;;;;;;;;5082854;28;20207;-79
2024/01/19 13:53:37;;;;;;;8.27;5.70;;;;;;;;;;5082785;28;20575;-79
2024/01/19 13:56:08;;;;;;;7.60;5.35;;;;;;;;;;5077974;28;20228;-79
2024/01/19 13:58:36;;;;;;;5.63;4.03;;;;;;;;;;5092103;28;20212;-79
2024/01/19 14:01:05;;;;;;;8.35;5.47;;;;;;;;;;5086610;28;20251;-80
2024/01/19 14:03:32;;;;;;;5.43;3.75;;;;;;;;;;5095909;28;20212;-80
2024/01/19 14:06:00;;;;;;;6.47;4.07;;;;;;;;;;5097293;28;20650;-80
2024/01/19 14:08:28;;;;;;;5.22;3.40;;;;;;;;;;5097776;28;20289;-81
2024/01/19 14:10:55;;;;;;;5.13;3.60;;;;;;;;;;5084618;28;20295;-79
2024/01/19 14:13:24;;;;;;;5.68;3.20;;;;;;;;;;5094233;28;20215;-81
2024/01/19 14:15:52;;;;;;;2.78;2.50;;;;;;;;;;5093505;28;20221;-80
2024/01/19 14:18:20;;;;;;;3.47;3.00;;;;;;;;;;5087642;28;20224;-80
2024/01/19 14:20:49;;;;;;;3.65;2.58;;;;;;;;;;5085170;28;20204;-79
2024/01/19 14:23:16;;;;;;;4.72;3.17;;;;;;;;;;5083980;28;20296;-79
2024/01/19 14:25:44;;;;;;;2.95;2.45;;;;;;;;;;5088486;28;20228;-80
2024/01/19 14:28:12;;;;;;;3.63;2.80;;;;;;;;;;5082252;28;20573;-79
2024/01/19 14:30:47;;;;;;;3.20;2.78;;;;;;;;;;5077730;28;20276;-80
2024/01/19 14:33:15;;;;;;;3.72;2.85;;;;;;;;;;5077041;28;20283;-80
2024/01/19 14:35:43;;;;;;;3.55;2.88;;;;;;;;;;5080131;28;20220;-80
2024/01/19 14:38:11;;;;;;;3.53;2.58;;;;;;;;;;5095421;28;20228;-80